sensor_id;sensor_type;location;lat;lon;timestamp;P1;durP1;ratioP1;P2;durP2;ratioP2
82511;SDS011;72152;65.012;25.464;2024-03-22T00:01:45;2.90;;;1.50;;
82511;SDS011;72152;65.012;25.464;2024-03-22T00:07:56;2.90;;;1.50;;
82511;SDS011;72152;65.012;25.464;2024-03-22T00:11:03;2.50;;;1.50;;
82511;SDS011;72152;65.012;25.464;2024-03-22T00:14:09;3.30;;;1.50;;
82511;SDS011;72152;65.012;25.464;2024-03-22T00:17:16;2.50;;;1.20;;
82511;SDS011;72152;65.012;25.464;2024-03-22T00:20:24;2.00;;;1.20;;
82511;SDS011;72152;65.012;25.464;2024-03-22T00:23:35;2.70;;;1.50;;
82511;SDS011;72152;65.012;25.464;2024-03-22T00:26:41;2.50;;;1.40;;
82511;SDS011;72152;65.012;25.464;2024-03-22T00:29:44;2.40;;;1.40;;
82511;SDS011;72152;65.012;25.464;2024-03-22T00:32:50;2.30;;;1.30;;
82511;SDS011;72152;65.012;25.464;2024-03-22T00:35:55;2.70;;;1.40;;
82511;SDS011;72152;65.012;25.464;2024-03-22T00:39:00;3.10;;;1.50;;
82511;SDS011;72152;65.012;25.464;2024-03-22T00:42:03;4.00;;;1.90;;
82511;SDS011;72152;65.012;25.464;2024-03-22T00:45:19;1.80;;;1.20;;
82511;SDS011;72152;65.012;25.464;2024-03-22T00:48:23;2.20;;;1.20;;
82511;SDS011;72152;65.012;25.464;2024-03-22T00:51:29;1.70;;;1.20;;
82511;SDS011;72152;65.012;25.464;2024-03-22T00:54:30;2.20;;;1.10;;
82511;SDS011;72152;65.012;25.464;2024-03-22T00:57:36;2.50;;;1.20;;
82511;SDS011;72152;65.012;25.464;2024-03-22T01:00:43;2.00;;;1.30;;
82511;SDS011;72152;65.012;25.464;2024-03-22T01:03:50;2.30;;;1.10;;
82511;SDS011;72152;65.012;25.464;2024-03-22T01:06:53;2.10;;;1.20;;
82511;SDS011;72152;65.012;25.464;2024-03-22T01:10:01;2.00;;;1.20;;
82511;SDS011;72152;65.012;25.464;2024-03-22T01:13:12;2.70;;;1.40;;
82511;SDS011;72152;65.012;25.464;2024-03-22T01:16:19;2.60;;;1.30;;
82511;SDS011;72152;65.012;25.464;2024-03-22T01:19:22;2.70;;;1.20;;
82511;SDS011;72152;65.012;25.464;2024-03-22T01:22:24;2.30;;;1.30;;
82511;SDS011;72152;65.012;25.464;2024-03-22T01:25:33;3.20;;;1.50;;
82511;SDS011;72152;65.012;25.464;2024-03-22T01:28:34;2.00;;;1.40;;
82511;SDS011;72152;65.012;25.464;2024-03-22T01:34:41;3.70;;;1.70;;
82511;SDS011;72152;65.012;25.464;2024-03-22T01:37:53;2.00;;;1.40;;
82511;SDS011;72152;65.012;25.464;2024-03-22T01:40:59;2.80;;;1.70;;
82511;SDS011;72152;65.012;25.464;2024-03-22T01:44:05;2.80;;;1.60;;
82511;SDS011;72152;65.012;25.464;2024-03-22T01:47:12;3.10;;;1.50;;
82511;SDS011;72152;65.012;25.464;2024-03-22T01:50:16;3.60;;;1.60;;
82511;SDS011;72152;65.012;25.464;2024-03-22T01:53:24;2.40;;;1.60;;
82511;SDS011;72152;65.012;25.464;2024-03-22T01:56:36;3.70;;;1.70;;
82511;SDS011;72152;65.012;25.464;2024-03-22T01:59:34;3.30;;;1.40;;
82511;SDS011;72152;65.012;25.464;2024-03-22T02:02:41;3.30;;;1.60;;
82511;SDS011;72152;65.012;25.464;2024-03-22T02:05:39;3.00;;;1.50;;
82511;SDS011;72152;65.012;25.464;2024-03-22T02:08:44;2.60;;;1.50;;
82511;SDS011;72152;65.012;25.464;2024-03-22T02:11:51;3.40;;;1.80;;
82511;SDS011;72152;65.012;25.464;2024-03-22T02:14:53;3.30;;;1.60;;
82511;SDS011;72152;65.012;25.464;2024-03-22T02:18:02;1.80;;;1.30;;
82511;SDS011;72152;65.012;25.464;2024-03-22T02:21:12;2.00;;;1.30;;
82511;SDS011;72152;65.012;25.464;2024-03-22T02:24:22;2.30;;;1.40;;
82511;SDS011;72152;65.012;25.464;2024-03-22T02:27:26;1.90;;;1.30;;
82511;SDS011;72152;65.012;25.464;2024-03-22T02:30:29;3.00;;;1.80;;
82511;SDS011;72152;65.012;25.464;2024-03-22T02:33:35;2.60;;;1.50;;
82511;SDS011;72152;65.012;25.464;2024-03-22T02:36:44;2.80;;;1.40;;
82511;SDS011;72152;65.012;25.464;2024-03-22T02:39:43;3.00;;;1.50;;
82511;SDS011;72152;65.012;25.464;2024-03-22T02:42:52;3.40;;;1.50;;
82511;SDS011;72152;65.012;25.464;2024-03-22T02:46:01;3.00;;;1.30;;
82511;SDS011;72152;65.012;25.464;2024-03-22T02:49:02;2.10;;;1.20;;
82511;SDS011;72152;65.012;25.464;2024-03-22T02:52:10;2.50;;;1.40;;
82511;SDS011;72152;65.012;25.464;2024-03-22T02:55:20;2.40;;;1.40;;
82511;SDS011;72152;65.012;25.464;2024-03-22T02:58:25;3.00;;;1.60;;
82511;SDS011;72152;65.012;25.464;2024-03-22T03:01:29;3.90;;;1.80;;
82511;SDS011;72152;65.012;25.464;2024-03-22T03:04:41;3.00;;;1.60;;
82511;SDS011;72152;65.012;25.464;2024-03-22T03:07:55;3.20;;;1.60;;
82511;SDS011;72152;65.012;25.464;2024-03-22T03:11:02;1.90;;;1.30;;
82511;SDS011;72152;65.012;25.464;2024-03-22T03:14:16;3.20;;;1.60;;
82511;SDS011;72152;65.012;25.464;2024-03-22T03:17:26;2.70;;;1.70;;
82511;SDS011;72152;65.012;25.464;2024-03-22T03:20:42;3.50;;;1.70;;
82511;SDS011;72152;65.012;25.464;2024-03-22T03:23:54;3.00;;;1.60;;
82511;SDS011;72152;65.012;25.464;2024-03-22T03:26:57;3.00;;;1.80;;
82511;SDS011;72152;65.012;25.464;2024-03-22T03:30:01;2.60;;;1.40;;
82511;SDS011;72152;65.012;25.464;2024-03-22T03:33:10;2.90;;;1.40;;
82511;SDS011;72152;65.012;25.464;2024-03-22T03:36:18;2.80;;;1.30;;
82511;SDS011;72152;65.012;25.464;2024-03-22T03:39:29;4.50;;;1.50;;
82511;SDS011;72152;65.012;25.464;2024-03-22T03:42:29;3.70;;;1.60;;
82511;SDS011;72152;65.012;25.464;2024-03-22T03:45:35;3.10;;;1.40;;
82511;SDS011;72152;65.012;25.464;2024-03-22T03:48:43;3.50;;;1.50;;
82511;SDS011;72152;65.012;25.464;2024-03-22T03:51:56;2.10;;;1.40;;
82511;SDS011;72152;65.012;25.464;2024-03-22T03:55:07;2.60;;;1.50;;
82511;SDS011;72152;65.012;25.464;2024-03-22T04:01:31;2.50;;;1.10;;
82511;SDS011;72152;65.012;25.464;2024-03-22T04:04:44;2.00;;;1.00;;
82511;SDS011;72152;65.012;25.464;2024-03-22T04:07:52;2.70;;;1.40;;
82511;SDS011;72152;65.012;25.464;2024-03-22T04:10:56;2.50;;;1.30;;
82511;SDS011;72152;65.012;25.464;2024-03-22T04:14:02;2.50;;;1.50;;
82511;SDS011;72152;65.012;25.464;2024-03-22T04:17:10;4.10;;;1.50;;
82511;SDS011;72152;65.012;25.464;2024-03-22T04:23:38;3.40;;;1.70;;
82511;SDS011;72152;65.012;25.464;2024-03-22T04:26:36;3.60;;;1.40;;
82511;SDS011;72152;65.012;25.464;2024-03-22T04:29:47;4.60;;;1.80;;
82511;SDS011;72152;65.012;25.464;2024-03-22T04:36:17;3.00;;;1.50;;
82511;SDS011;72152;65.012;25.464;2024-03-22T04:39:25;4.50;;;1.70;;
82511;SDS011;72152;65.012;25.464;2024-03-22T04:42:30;4.10;;;1.70;;
82511;SDS011;72152;65.012;25.464;2024-03-22T04:45:42;4.10;;;1.60;;
82511;SDS011;72152;65.012;25.464;2024-03-22T04:48:49;3.90;;;1.90;;
82511;SDS011;72152;65.012;25.464;2024-03-22T04:52:01;4.10;;;2.00;;
82511;SDS011;72152;65.012;25.464;2024-03-22T04:55:14;3.30;;;1.80;;
82511;SDS011;72152;65.012;25.464;2024-03-22T05:01:29;4.80;;;2.10;;
82511;SDS011;72152;65.012;25.464;2024-03-22T05:04:38;3.50;;;1.70;;
82511;SDS011;72152;65.012;25.464;2024-03-22T05:07:44;4.10;;;1.90;;
82511;SDS011;72152;65.012;25.464;2024-03-22T05:10:47;3.90;;;1.80;;
82511;SDS011;72152;65.012;25.464;2024-03-22T05:13:53;4.50;;;1.80;;
82511;SDS011;72152;65.012;25.464;2024-03-22T05:17:01;4.90;;;2.10;;
82511;SDS011;72152;65.012;25.464;2024-03-22T05:20:06;4.80;;;2.20;;
82511;SDS011;72152;65.012;25.464;2024-03-22T05:23:17;6.00;;;2.00;;
82511;SDS011;72152;65.012;25.464;2024-03-22T05:26:25;4.80;;;2.50;;
82511;SDS011;72152;65.012;25.464;2024-03-22T05:29:36;13.60;;;5.90;;
82511;SDS011;72152;65.012;25.464;2024-03-22T05:32:43;9.30;;;3.80;;
82511;SDS011;72152;65.012;25.464;2024-03-22T05:35:55;5.30;;;2.10;;
82511;SDS011;72152;65.012;25.464;2024-03-22T05:39:02;4.40;;;2.00;;
82511;SDS011;72152;65.012;25.464;2024-03-22T05:42:07;5.90;;;2.40;;
82511;SDS011;72152;65.012;25.464;2024-03-22T05:45:18;4.10;;;1.80;;
82511;SDS011;72152;65.012;25.464;2024-03-22T05:48:30;4.50;;;2.10;;
82511;SDS011;72152;65.012;25.464;2024-03-22T05:51:38;5.50;;;2.50;;
82511;SDS011;72152;65.012;25.464;2024-03-22T05:54:46;5.90;;;2.40;;
82511;SDS011;72152;65.012;25.464;2024-03-22T05:57:56;5.10;;;2.10;;
82511;SDS011;72152;65.012;25.464;2024-03-22T06:01:04;4.30;;;2.10;;
82511;SDS011;72152;65.012;25.464;2024-03-22T06:04:01;4.00;;;2.00;;
82511;SDS011;72152;65.012;25.464;2024-03-22T06:07:07;5.10;;;2.00;;
82511;SDS011;72152;65.012;25.464;2024-03-22T06:10:16;4.60;;;2.20;;
82511;SDS011;72152;65.012;25.464;2024-03-22T06:13:28;10.90;;;4.40;;
82511;SDS011;72152;65.012;25.464;2024-03-22T06:16:31;23.00;;;8.90;;
82511;SDS011;72152;65.012;25.464;2024-03-22T06:19:38;6.80;;;2.60;;
82511;SDS011;72152;65.012;25.464;2024-03-22T06:22:46;5.80;;;2.50;;
82511;SDS011;72152;65.012;25.464;2024-03-22T06:26:02;5.10;;;2.50;;
82511;SDS011;72152;65.012;25.464;2024-03-22T06:29:15;4.00;;;2.30;;
82511;SDS011;72152;65.012;25.464;2024-03-22T06:32:19;5.50;;;2.50;;
82511;SDS011;72152;65.012;25.464;2024-03-22T06:35:32;5.20;;;2.40;;
82511;SDS011;72152;65.012;25.464;2024-03-22T06:38:34;4.70;;;2.10;;
82511;SDS011;72152;65.012;25.464;2024-03-22T06:41:38;3.70;;;2.00;;
82511;SDS011;72152;65.012;25.464;2024-03-22T06:44:47;4.40;;;2.30;;
82511;SDS011;72152;65.012;25.464;2024-03-22T06:48:04;5.20;;;2.30;;
82511;SDS011;72152;65.012;25.464;2024-03-22T06:51:11;3.60;;;1.90;;
82511;SDS011;72152;65.012;25.464;2024-03-22T06:54:18;4.30;;;2.10;;
82511;SDS011;72152;65.012;25.464;2024-03-22T06:57:30;5.00;;;1.80;;
82511;SDS011;72152;65.012;25.464;2024-03-22T07:00:33;4.00;;;1.90;;
82511;SDS011;72152;65.012;25.464;2024-03-22T07:03:42;3.90;;;1.90;;
82511;SDS011;72152;65.012;25.464;2024-03-22T07:06:51;5.30;;;2.10;;
82511;SDS011;72152;65.012;25.464;2024-03-22T07:10:06;3.70;;;1.90;;
82511;SDS011;72152;65.012;25.464;2024-03-22T07:13:21;4.70;;;2.00;;
82511;SDS011;72152;65.012;25.464;2024-03-22T07:16:33;4.20;;;2.00;;
82511;SDS011;72152;65.012;25.464;2024-03-22T07:19:44;4.20;;;1.90;;
82511;SDS011;72152;65.012;25.464;2024-03-22T07:22:50;4.10;;;2.10;;
82511;SDS011;72152;65.012;25.464;2024-03-22T07:25:59;5.60;;;2.20;;
82511;SDS011;72152;65.012;25.464;2024-03-22T07:29:19;3.60;;;1.70;;
82511;SDS011;72152;65.012;25.464;2024-03-22T07:32:26;5.10;;;1.80;;
82511;SDS011;72152;65.012;25.464;2024-03-22T07:35:34;5.00;;;1.80;;
82511;SDS011;72152;65.012;25.464;2024-03-22T07:42:19;4.40;;;1.90;;
82511;SDS011;72152;65.012;25.464;2024-03-22T07:45:36;3.50;;;1.80;;
82511;SDS011;72152;65.012;25.464;2024-03-22T07:48:43;5.80;;;1.90;;
82511;SDS011;72152;65.012;25.464;2024-03-22T07:51:50;4.60;;;1.80;;
82511;SDS011;72152;65.012;25.464;2024-03-22T07:55:00;4.80;;;1.90;;
82511;SDS011;72152;65.012;25.464;2024-03-22T07:58:05;5.00;;;2.20;;
82511;SDS011;72152;65.012;25.464;2024-03-22T08:01:14;5.20;;;2.40;;
82511;SDS011;72152;65.012;25.464;2024-03-22T08:04:27;5.20;;;2.20;;
82511;SDS011;72152;65.012;25.464;2024-03-22T08:07:38;4.80;;;1.90;;
82511;SDS011;72152;65.012;25.464;2024-03-22T08:10:54;5.30;;;1.90;;
82511;SDS011;72152;65.012;25.464;2024-03-22T08:14:04;4.60;;;2.20;;
82511;SDS011;72152;65.012;25.464;2024-03-22T08:20:19;6.00;;;1.90;;
82511;SDS011;72152;65.012;25.464;2024-03-22T08:33:14;4.70;;;2.20;;
82511;SDS011;72152;65.012;25.464;2024-03-22T08:36:32;4.40;;;1.90;;
82511;SDS011;72152;65.012;25.464;2024-03-22T08:39:46;3.80;;;1.80;;
82511;SDS011;72152;65.012;25.464;2024-03-22T08:42:59;6.20;;;2.30;;
82511;SDS011;72152;65.012;25.464;2024-03-22T08:46:14;4.70;;;1.90;;
82511;SDS011;72152;65.012;25.464;2024-03-22T08:49:22;5.10;;;1.80;;
82511;SDS011;72152;65.012;25.464;2024-03-22T08:52:32;3.80;;;1.70;;
82511;SDS011;72152;65.012;25.464;2024-03-22T08:58:41;4.80;;;2.00;;
82511;SDS011;72152;65.012;25.464;2024-03-22T09:01:47;4.80;;;2.00;;
82511;SDS011;72152;65.012;25.464;2024-03-22T09:08:07;4.50;;;1.60;;
82511;SDS011;72152;65.012;25.464;2024-03-22T09:11:14;4.30;;;1.90;;
82511;SDS011;72152;65.012;25.464;2024-03-22T09:14:27;4.20;;;1.70;;
82511;SDS011;72152;65.012;25.464;2024-03-22T09:17:35;4.00;;;1.90;;
82511;SDS011;72152;65.012;25.464;2024-03-22T09:23:45;3.50;;;1.60;;
82511;SDS011;72152;65.012;25.464;2024-03-22T09:26:52;4.40;;;1.70;;
82511;SDS011;72152;65.012;25.464;2024-03-22T09:30:05;5.00;;;1.80;;
82511;SDS011;72152;65.012;25.464;2024-03-22T09:33:20;4.60;;;1.60;;
82511;SDS011;72152;65.012;25.464;2024-03-22T09:36:27;3.20;;;1.60;;
82511;SDS011;72152;65.012;25.464;2024-03-22T09:39:31;5.10;;;1.80;;
82511;SDS011;72152;65.012;25.464;2024-03-22T09:42:37;5.20;;;1.90;;
82511;SDS011;72152;65.012;25.464;2024-03-22T09:45:47;4.80;;;1.70;;
82511;SDS011;72152;65.012;25.464;2024-03-22T09:48:50;3.60;;;1.70;;
82511;SDS011;72152;65.012;25.464;2024-03-22T09:51:58;3.50;;;1.40;;
82511;SDS011;72152;65.012;25.464;2024-03-22T09:54:56;6.50;;;2.60;;
82511;SDS011;72152;65.012;25.464;2024-03-22T09:58:04;2.50;;;1.20;;
82511;SDS011;72152;65.012;25.464;2024-03-22T10:01:15;4.40;;;1.30;;
82511;SDS011;72152;65.012;25.464;2024-03-22T10:04:24;1.60;;;1.20;;
82511;SDS011;72152;65.012;25.464;2024-03-22T10:07:35;2.80;;;1.30;;
82511;SDS011;72152;65.012;25.464;2024-03-22T10:10:43;3.30;;;1.30;;
82511;SDS011;72152;65.012;25.464;2024-03-22T10:13:55;2.90;;;1.20;;
82511;SDS011;72152;65.012;25.464;2024-03-22T10:16:58;3.00;;;1.40;;
82511;SDS011;72152;65.012;25.464;2024-03-22T10:23:24;2.70;;;1.10;;
82511;SDS011;72152;65.012;25.464;2024-03-22T10:26:27;2.80;;;1.20;;
82511;SDS011;72152;65.012;25.464;2024-03-22T10:29:35;2.50;;;1.10;;
82511;SDS011;72152;65.012;25.464;2024-03-22T10:32:44;3.40;;;1.20;;
82511;SDS011;72152;65.012;25.464;2024-03-22T10:35:53;3.80;;;1.10;;
82511;SDS011;72152;65.012;25.464;2024-03-22T10:39:01;2.30;;;0.90;;
82511;SDS011;72152;65.012;25.464;2024-03-22T10:42:12;4.40;;;1.10;;
82511;SDS011;72152;65.012;25.464;2024-03-22T10:45:18;2.70;;;1.30;;
82511;SDS011;72152;65.012;25.464;2024-03-22T10:48:24;6.10;;;1.20;;
82511;SDS011;72152;65.012;25.464;2024-03-22T10:51:32;2.60;;;1.20;;
82511;SDS011;72152;65.012;25.464;2024-03-22T10:54:43;2.50;;;1.20;;
82511;SDS011;72152;65.012;25.464;2024-03-22T10:57:48;2.60;;;1.20;;
82511;SDS011;72152;65.012;25.464;2024-03-22T11:00:53;2.40;;;0.90;;
82511;SDS011;72152;65.012;25.464;2024-03-22T11:04:08;2.90;;;1.40;;
82511;SDS011;72152;65.012;25.464;2024-03-22T11:07:16;2.20;;;1.20;;
82511;SDS011;72152;65.012;25.464;2024-03-22T11:10:27;3.40;;;1.20;;
82511;SDS011;72152;65.012;25.464;2024-03-22T11:13:27;2.60;;;1.30;;
82511;SDS011;72152;65.012;25.464;2024-03-22T11:16:35;1.50;;;0.80;;
82511;SDS011;72152;65.012;25.464;2024-03-22T11:19:50;3.20;;;1.20;;
82511;SDS011;72152;65.012;25.464;2024-03-22T11:22:56;4.30;;;1.00;;
82511;SDS011;72152;65.012;25.464;2024-03-22T11:26:04;2.80;;;0.80;;
82511;SDS011;72152;65.012;25.464;2024-03-22T11:29:10;1.60;;;0.90;;
82511;SDS011;72152;65.012;25.464;2024-03-22T11:32:16;4.00;;;1.20;;
82511;SDS011;72152;65.012;25.464;2024-03-22T11:35:22;2.30;;;1.20;;
82511;SDS011;72152;65.012;25.464;2024-03-22T11:38:28;1.40;;;0.90;;
82511;SDS011;72152;65.012;25.464;2024-03-22T11:41:33;4.20;;;1.50;;
82511;SDS011;72152;65.012;25.464;2024-03-22T11:44:35;1.50;;;1.00;;
82511;SDS011;72152;65.012;25.464;2024-03-22T11:47:43;1.60;;;0.90;;
82511;SDS011;72152;65.012;25.464;2024-03-22T11:50:50;6.50;;;2.10;;
82511;SDS011;72152;65.012;25.464;2024-03-22T11:53:54;2.90;;;1.20;;
82511;SDS011;72152;65.012;25.464;2024-03-22T11:57:02;1.50;;;1.00;;
82511;SDS011;72152;65.012;25.464;2024-03-22T12:00:12;1.70;;;1.00;;
82511;SDS011;72152;65.012;25.464;2024-03-22T12:03:26;2.40;;;1.20;;
82511;SDS011;72152;65.012;25.464;2024-03-22T12:06:42;2.70;;;1.20;;
82511;SDS011;72152;65.012;25.464;2024-03-22T12:12:57;2.10;;;1.10;;
82511;SDS011;72152;65.012;25.464;2024-03-22T12:16:03;2.10;;;1.00;;
82511;SDS011;72152;65.012;25.464;2024-03-22T12:19:11;2.10;;;1.10;;
82511;SDS011;72152;65.012;25.464;2024-03-22T12:22:19;2.60;;;1.10;;
82511;SDS011;72152;65.012;25.464;2024-03-22T12:25:23;2.40;;;0.90;;
82511;SDS011;72152;65.012;25.464;2024-03-22T12:28:30;2.30;;;1.00;;
82511;SDS011;72152;65.012;25.464;2024-03-22T12:31:34;3.80;;;1.20;;
82511;SDS011;72152;65.012;25.464;2024-03-22T12:34:37;4.10;;;1.80;;
82511;SDS011;72152;65.012;25.464;2024-03-22T12:37:42;1.50;;;0.80;;
82511;SDS011;72152;65.012;25.464;2024-03-22T12:40:49;3.60;;;1.00;;
82511;SDS011;72152;65.012;25.464;2024-03-22T12:43:51;1.80;;;1.10;;
82511;SDS011;72152;65.012;25.464;2024-03-22T12:46:53;1.90;;;1.00;;
82511;SDS011;72152;65.012;25.464;2024-03-22T12:50:00;3.10;;;1.00;;
82511;SDS011;72152;65.012;25.464;2024-03-22T12:53:06;3.70;;;1.30;;
82511;SDS011;72152;65.012;25.464;2024-03-22T12:59:27;2.50;;;1.10;;
82511;SDS011;72152;65.012;25.464;2024-03-22T13:02:45;1.80;;;1.00;;
82511;SDS011;72152;65.012;25.464;2024-03-22T13:05:52;1.70;;;0.90;;
82511;SDS011;72152;65.012;25.464;2024-03-22T13:08:55;3.10;;;1.10;;
82511;SDS011;72152;65.012;25.464;2024-03-22T13:12:06;2.70;;;1.30;;
82511;SDS011;72152;65.012;25.464;2024-03-22T13:15:22;2.60;;;1.10;;
82511;SDS011;72152;65.012;25.464;2024-03-22T13:18:25;0.70;;;0.70;;
82511;SDS011;72152;65.012;25.464;2024-03-22T13:21:24;1.40;;;0.80;;
82511;SDS011;72152;65.012;25.464;2024-03-22T13:24:40;1.90;;;0.70;;
82511;SDS011;72152;65.012;25.464;2024-03-22T13:27:43;2.10;;;0.80;;
82511;SDS011;72152;65.012;25.464;2024-03-22T13:34:04;2.60;;;0.80;;
82511;SDS011;72152;65.012;25.464;2024-03-22T13:37:13;3.20;;;1.00;;
82511;SDS011;72152;65.012;25.464;2024-03-22T13:40:21;2.50;;;1.20;;
82511;SDS011;72152;65.012;25.464;2024-03-22T13:43:21;3.60;;;1.10;;
82511;SDS011;72152;65.012;25.464;2024-03-22T13:46:24;3.10;;;0.90;;
82511;SDS011;72152;65.012;25.464;2024-03-22T13:49:36;1.90;;;0.70;;
82511;SDS011;72152;65.012;25.464;2024-03-22T13:52:42;7.10;;;1.10;;
82511;SDS011;72152;65.012;25.464;2024-03-22T13:55:49;3.50;;;0.90;;
82511;SDS011;72152;65.012;25.464;2024-03-22T13:58:54;2.60;;;1.10;;
82511;SDS011;72152;65.012;25.464;2024-03-22T14:02:06;2.10;;;1.10;;
82511;SDS011;72152;65.012;25.464;2024-03-22T14:05:15;2.80;;;0.90;;
82511;SDS011;72152;65.012;25.464;2024-03-22T14:08:16;3.20;;;1.10;;
82511;SDS011;72152;65.012;25.464;2024-03-22T14:11:27;2.50;;;1.10;;
82511;SDS011;72152;65.012;25.464;2024-03-22T14:14:33;2.90;;;1.00;;
82511;SDS011;72152;65.012;25.464;2024-03-22T14:17:45;1.80;;;1.00;;
82511;SDS011;72152;65.012;25.464;2024-03-22T14:20:51;3.40;;;1.30;;
82511;SDS011;72152;65.012;25.464;2024-03-22T14:24:00;3.40;;;1.20;;
82511;SDS011;72152;65.012;25.464;2024-03-22T14:27:05;2.70;;;1.20;;
82511;SDS011;72152;65.012;25.464;2024-03-22T14:30:19;3.70;;;1.10;;
82511;SDS011;72152;65.012;25.464;2024-03-22T14:33:22;4.20;;;1.20;;
82511;SDS011;72152;65.012;25.464;2024-03-22T14:36:28;1.50;;;0.90;;
82511;SDS011;72152;65.012;25.464;2024-03-22T14:39:34;1.80;;;0.80;;
82511;SDS011;72152;65.012;25.464;2024-03-22T14:42:39;3.00;;;1.10;;
82511;SDS011;72152;65.012;25.464;2024-03-22T14:45:39;1.90;;;1.00;;
82511;SDS011;72152;65.012;25.464;2024-03-22T14:48:39;2.90;;;1.10;;
82511;SDS011;72152;65.012;25.464;2024-03-22T14:51:40;2.30;;;1.10;;
82511;SDS011;72152;65.012;25.464;2024-03-22T14:54:51;4.30;;;1.10;;
82511;SDS011;72152;65.012;25.464;2024-03-22T14:57:54;3.30;;;1.20;;
82511;SDS011;72152;65.012;25.464;2024-03-22T15:01:00;3.00;;;1.20;;
82511;SDS011;72152;65.012;25.464;2024-03-22T15:04:12;3.80;;;1.10;;
82511;SDS011;72152;65.012;25.464;2024-03-22T15:07:18;3.30;;;1.40;;
82511;SDS011;72152;65.012;25.464;2024-03-22T15:10:20;4.70;;;2.00;;
82511;SDS011;72152;65.012;25.464;2024-03-22T15:13:26;2.70;;;1.10;;
82511;SDS011;72152;65.012;25.464;2024-03-22T15:16:26;3.80;;;1.70;;
82511;SDS011;72152;65.012;25.464;2024-03-22T15:19:27;3.80;;;1.30;;
82511;SDS011;72152;65.012;25.464;2024-03-22T15:22:35;2.60;;;1.30;;
82511;SDS011;72152;65.012;25.464;2024-03-22T15:31:33;2.90;;;1.10;;
82511;SDS011;72152;65.012;25.464;2024-03-22T15:34:39;1.90;;;0.70;;
82511;SDS011;72152;65.012;25.464;2024-03-22T15:40:57;2.90;;;1.20;;
82511;SDS011;72152;65.012;25.464;2024-03-22T15:44:01;3.40;;;1.60;;
82511;SDS011;72152;65.012;25.464;2024-03-22T15:47:03;3.90;;;1.30;;
82511;SDS011;72152;65.012;25.464;2024-03-22T15:50:02;4.20;;;1.70;;
82511;SDS011;72152;65.012;25.464;2024-03-22T15:53:15;3.20;;;1.30;;
82511;SDS011;72152;65.012;25.464;2024-03-22T15:56:22;2.90;;;1.20;;
82511;SDS011;72152;65.012;25.464;2024-03-22T15:59:30;2.00;;;1.00;;
82511;SDS011;72152;65.012;25.464;2024-03-22T16:02:31;2.20;;;1.00;;
82511;SDS011;72152;65.012;25.464;2024-03-22T16:05:33;3.90;;;1.40;;
82511;SDS011;72152;65.012;25.464;2024-03-22T16:08:47;3.00;;;1.10;;
82511;SDS011;72152;65.012;25.464;2024-03-22T16:11:52;4.50;;;1.10;;
82511;SDS011;72152;65.012;25.464;2024-03-22T16:14:52;4.30;;;1.60;;
82511;SDS011;72152;65.012;25.464;2024-03-22T16:17:56;2.90;;;1.10;;
82511;SDS011;72152;65.012;25.464;2024-03-22T16:21:01;4.30;;;1.20;;
82511;SDS011;72152;65.012;25.464;2024-03-22T16:24:15;2.40;;;1.30;;
82511;SDS011;72152;65.012;25.464;2024-03-22T16:27:27;1.30;;;1.00;;
82511;SDS011;72152;65.012;25.464;2024-03-22T16:30:32;4.30;;;1.60;;
82511;SDS011;72152;65.012;25.464;2024-03-22T16:33:38;3.80;;;1.50;;
82511;SDS011;72152;65.012;25.464;2024-03-22T16:36:39;4.00;;;1.40;;
82511;SDS011;72152;65.012;25.464;2024-03-22T16:39:44;2.90;;;1.70;;
82511;SDS011;72152;65.012;25.464;2024-03-22T16:42:50;2.80;;;1.00;;
82511;SDS011;72152;65.012;25.464;2024-03-22T16:45:52;2.80;;;1.30;;
82511;SDS011;72152;65.012;25.464;2024-03-22T16:49:00;2.90;;;1.50;;
82511;SDS011;72152;65.012;25.464;2024-03-22T16:52:07;2.90;;;1.30;;
82511;SDS011;72152;65.012;25.464;2024-03-22T16:55:11;3.40;;;1.40;;
82511;SDS011;72152;65.012;25.464;2024-03-22T16:58:14;4.50;;;1.50;;
82511;SDS011;72152;65.012;25.464;2024-03-22T17:01:21;4.70;;;1.60;;
82511;SDS011;72152;65.012;25.464;2024-03-22T17:04:18;2.40;;;1.30;;
82511;SDS011;72152;65.012;25.464;2024-03-22T17:07:28;4.90;;;2.10;;
82511;SDS011;72152;65.012;25.464;2024-03-22T17:10:53;6.00;;;2.10;;
82511;SDS011;72152;65.012;25.464;2024-03-22T17:14:02;3.40;;;1.30;;
82511;SDS011;72152;65.012;25.464;2024-03-22T17:17:08;4.60;;;1.50;;
82511;SDS011;72152;65.012;25.464;2024-03-22T17:20:21;2.60;;;1.30;;
82511;SDS011;72152;65.012;25.464;2024-03-22T17:23:33;3.00;;;1.40;;
82511;SDS011;72152;65.012;25.464;2024-03-22T17:26:42;3.00;;;1.50;;
82511;SDS011;72152;65.012;25.464;2024-03-22T17:29:53;6.00;;;2.50;;
82511;SDS011;72152;65.012;25.464;2024-03-22T17:32:56;3.20;;;1.50;;
82511;SDS011;72152;65.012;25.464;2024-03-22T17:35:57;3.30;;;1.40;;
82511;SDS011;72152;65.012;25.464;2024-03-22T17:39:09;2.60;;;1.10;;
82511;SDS011;72152;65.012;25.464;2024-03-22T17:42:09;2.00;;;1.30;;
82511;SDS011;72152;65.012;25.464;2024-03-22T17:45:25;3.10;;;1.30;;
82511;SDS011;72152;65.012;25.464;2024-03-22T17:48:35;2.80;;;1.30;;
82511;SDS011;72152;65.012;25.464;2024-03-22T17:51:41;3.90;;;1.20;;
82511;SDS011;72152;65.012;25.464;2024-03-22T17:54:49;3.60;;;1.20;;
82511;SDS011;72152;65.012;25.464;2024-03-22T17:57:55;2.00;;;1.00;;
82511;SDS011;72152;65.012;25.464;2024-03-22T18:00:54;4.30;;;1.70;;
82511;SDS011;72152;65.012;25.464;2024-03-22T18:03:59;2.40;;;1.20;;
82511;SDS011;72152;65.012;25.464;2024-03-22T18:07:11;2.00;;;1.00;;
82511;SDS011;72152;65.012;25.464;2024-03-22T18:10:19;1.70;;;0.90;;
82511;SDS011;72152;65.012;25.464;2024-03-22T18:13:23;2.70;;;1.20;;
82511;SDS011;72152;65.012;25.464;2024-03-22T18:16:27;3.60;;;1.40;;
82511;SDS011;72152;65.012;25.464;2024-03-22T18:19:28;2.10;;;1.10;;
82511;SDS011;72152;65.012;25.464;2024-03-22T18:22:34;2.20;;;1.10;;
82511;SDS011;72152;65.012;25.464;2024-03-22T18:25:37;3.00;;;1.10;;
82511;SDS011;72152;65.012;25.464;2024-03-22T18:28:40;2.20;;;1.00;;
82511;SDS011;72152;65.012;25.464;2024-03-22T18:31:45;1.30;;;0.80;;
82511;SDS011;72152;65.012;25.464;2024-03-22T18:34:50;3.20;;;1.10;;
82511;SDS011;72152;65.012;25.464;2024-03-22T18:37:58;2.60;;;1.30;;
82511;SDS011;72152;65.012;25.464;2024-03-22T18:41:04;1.70;;;1.00;;
82511;SDS011;72152;65.012;25.464;2024-03-22T18:44:14;2.10;;;1.00;;
82511;SDS011;72152;65.012;25.464;2024-03-22T18:47:32;2.40;;;1.10;;
82511;SDS011;72152;65.012;25.464;2024-03-22T18:50:38;1.60;;;1.00;;
82511;SDS011;72152;65.012;25.464;2024-03-22T18:53:48;0.80;;;0.60;;
82511;SDS011;72152;65.012;25.464;2024-03-22T18:56:51;1.50;;;1.00;;
82511;SDS011;72152;65.012;25.464;2024-03-22T19:00:03;1.90;;;1.10;;
82511;SDS011;72152;65.012;25.464;2024-03-22T19:03:08;2.10;;;1.00;;
82511;SDS011;72152;65.012;25.464;2024-03-22T19:06:14;1.10;;;0.90;;
82511;SDS011;72152;65.012;25.464;2024-03-22T19:09:17;1.60;;;0.90;;
82511;SDS011;72152;65.012;25.464;2024-03-22T19:12:19;1.80;;;1.00;;
82511;SDS011;72152;65.012;25.464;2024-03-22T19:15:27;2.60;;;1.10;;
82511;SDS011;72152;65.012;25.464;2024-03-22T19:18:34;2.30;;;1.10;;
82511;SDS011;72152;65.012;25.464;2024-03-22T19:21:40;1.60;;;1.00;;
82511;SDS011;72152;65.012;25.464;2024-03-22T19:24:38;1.80;;;0.90;;
82511;SDS011;72152;65.012;25.464;2024-03-22T19:27:42;2.20;;;1.00;;
82511;SDS011;72152;65.012;25.464;2024-03-22T19:30:50;1.80;;;1.10;;
82511;SDS011;72152;65.012;25.464;2024-03-22T19:33:59;2.10;;;1.00;;
82511;SDS011;72152;65.012;25.464;2024-03-22T19:36:58;2.60;;;1.10;;